createdAt,value
2022-12-18T00:00:14.846Z,0.00
2022-12-18T00:01:15.025Z,0.00
2022-12-18T00:02:15.649Z,0.00
2022-12-18T00:03:14.956Z,0.00
2022-12-18T00:04:15.149Z,0.00
2022-12-18T00:05:15.045Z,0.00
2022-12-18T00:06:14.817Z,0.00
2022-12-18T00:07:14.900Z,0.00
2022-12-18T00:08:14.770Z,0.00
2022-12-18T00:09:14.756Z,0.00
2022-12-18T00:10:15.514Z,0.00
2022-12-18T00:11:18.748Z,0.00
2022-12-18T00:13:14.818Z,0.00
2022-12-18T00:14:14.691Z,0.00
2022-12-18T00:15:14.678Z,0.00
2022-12-18T00:16:14.732Z,0.00
2022-12-18T00:17:14.657Z,0.00
2022-12-18T00:18:18.996Z,0.00
2022-12-18T00:19:15.771Z,0.00
2022-12-18T00:20:14.891Z,0.00
2022-12-18T00:21:14.622Z,0.00
2022-12-18T00:22:15.036Z,0.00
2022-12-18T00:23:14.602Z,0.00
2022-12-18T00:24:14.572Z,0.00
2022-12-18T00:25:14.599Z,0.00
2022-12-18T00:26:14.549Z,0.00
2022-12-18T00:27:14.538Z,0.00
2022-12-18T00:28:14.527Z,0.00
2022-12-18T00:29:14.523Z,0.00
2022-12-18T00:30:14.507Z,0.00
2022-12-18T00:31:14.624Z,0.00
2022-12-18T00:32:14.479Z,0.00
2022-12-18T00:33:14.475Z,0.00
2022-12-18T00:34:14.451Z,0.00
2022-12-18T00:35:14.451Z,0.00
2022-12-18T00:36:14.431Z,0.00
2022-12-18T00:37:19.838Z,0.00
2022-12-18T00:38:15.401Z,0.00
2022-12-18T00:39:14.403Z,0.00
2022-12-18T00:40:14.373Z,0.00
2022-12-18T00:41:14.371Z,0.00
2022-12-18T00:42:14.992Z,0.00
2022-12-18T00:43:14.361Z,0.00
2022-12-18T00:44:15.013Z,0.00
2022-12-18T00:45:14.355Z,0.00
2022-12-18T00:46:14.640Z,0.00
2022-12-18T00:47:14.309Z,0.00
2022-12-18T00:48:14.290Z,0.00
2022-12-18T00:49:14.324Z,0.00
2022-12-18T00:50:15.013Z,0.00
2022-12-18T00:51:14.251Z,0.00
2022-12-18T00:52:14.255Z,0.00
2022-12-18T00:53:14.223Z,0.00
2022-12-18T00:54:18.215Z,0.00
2022-12-18T00:55:14.331Z,0.00
2022-12-18T00:56:15.013Z,0.00
2022-12-18T00:57:14.194Z,0.00
2022-12-18T00:58:14.188Z,0.00
2022-12-18T00:59:14.425Z,0.00
2022-12-18T01:00:14.166Z,0.00
2022-12-18T01:01:14.340Z,0.00
2022-12-18T01:02:14.331Z,0.00
2022-12-18T01:03:14.231Z,0.00
2022-12-18T01:04:14.111Z,0.00
2022-12-18T01:05:14.094Z,0.00
2022-12-18T01:06:14.093Z,0.00
2022-12-18T01:07:14.119Z,0.00
2022-12-18T01:08:15.005Z,0.00
2022-12-18T01:09:14.068Z,0.00
2022-12-18T01:10:14.040Z,0.00
2022-12-18T01:11:14.028Z,0.00
2022-12-18T01:12:14.018Z,0.00
2022-12-18T01:13:14.056Z,0.00
2022-12-18T01:14:14.002Z,0.00
2022-12-18T01:15:14.011Z,0.00
2022-12-18T01:16:17.948Z,0.00
2022-12-18T01:17:13.976Z,0.00
2022-12-18T01:18:13.947Z,0.00
2022-12-18T01:19:13.970Z,0.00
2022-12-18T01:20:14.046Z,0.00
2022-12-18T01:21:13.927Z,0.00
2022-12-18T01:22:17.825Z,0.00
2022-12-18T01:23:13.896Z,0.00
2022-12-18T01:24:13.877Z,0.00
2022-12-18T01:25:14.557Z,0.00
2022-12-18T01:26:13.859Z,0.00
2022-12-18T01:27:13.855Z,0.00
2022-12-18T01:28:13.828Z,0.00
2022-12-18T01:29:13.828Z,0.00
2022-12-18T01:30:13.825Z,0.00
2022-12-18T01:31:13.888Z,0.00
2022-12-18T01:32:13.788Z,0.00
2022-12-18T01:33:13.788Z,0.00
2022-12-18T01:34:13.759Z,0.00
2022-12-18T01:35:13.758Z,0.00
2022-12-18T01:36:13.739Z,0.00
2022-12-18T01:37:13.841Z,0.00
2022-12-18T01:38:13.720Z,0.00
2022-12-18T01:39:13.716Z,0.00
2022-12-18T01:40:14.510Z,0.00
2022-12-18T01:41:13.691Z,0.00
2022-12-18T01:42:13.669Z,0.00
2022-12-18T01:43:13.706Z,0.00
2022-12-18T01:44:13.648Z,0.00
2022-12-18T01:45:13.650Z,0.00
2022-12-18T01:46:13.650Z,0.00
2022-12-18T01:47:13.889Z,0.00
2022-12-18T01:48:13.611Z,0.00
2022-12-18T01:49:13.709Z,0.00
2022-12-18T01:50:13.593Z,0.00
2022-12-18T01:51:13.570Z,0.00
2022-12-18T01:52:13.551Z,0.00
2022-12-18T01:53:13.551Z,0.00
2022-12-18T01:54:13.538Z,0.00
2022-12-18T01:55:13.563Z,0.00
2022-12-18T01:56:13.501Z,0.00
2022-12-18T01:57:13.502Z,0.00
2022-12-18T01:58:14.177Z,0.00
2022-12-18T01:59:13.480Z,0.00
2022-12-18T02:00:13.473Z,0.00
2022-12-18T02:01:13.613Z,0.00
2022-12-18T02:02:13.884Z,0.00
2022-12-18T02:03:13.579Z,0.00
2022-12-18T02:04:13.423Z,0.00
2022-12-18T02:05:13.412Z,0.00
2022-12-18T02:06:13.391Z,0.00
2022-12-18T02:07:14.335Z,0.00
2022-12-18T02:08:14.614Z,0.00
2022-12-18T02:09:13.374Z,0.00
2022-12-18T02:10:13.345Z,0.00
2022-12-18T02:11:13.340Z,0.00
2022-12-18T02:12:13.321Z,0.00
2022-12-18T02:13:13.425Z,0.00
2022-12-18T02:14:13.566Z,0.00
2022-12-18T02:15:14.246Z,0.00
2022-12-18T02:16:13.350Z,0.00
2022-12-18T02:17:13.265Z,0.00
2022-12-18T02:18:13.645Z,0.00
2022-12-18T02:19:13.644Z,0.00
2022-12-18T02:20:17.119Z,0.00
2022-12-18T02:21:13.225Z,0.00
2022-12-18T02:22:13.217Z,0.00
2022-12-18T02:23:13.209Z,0.00
2022-12-18T02:24:13.186Z,0.00
2022-12-18T02:25:17.160Z,0.00
2022-12-18T02:26:13.167Z,0.00
2022-12-18T02:27:13.157Z,0.00
2022-12-18T02:28:13.146Z,0.00
2022-12-18T02:29:13.136Z,0.00
2022-12-18T02:30:13.118Z,0.00
2022-12-18T02:31:13.232Z,0.00
2022-12-18T02:32:13.095Z,0.00
2022-12-18T02:33:13.085Z,0.00
2022-12-18T02:34:13.078Z,0.00
2022-12-18T02:35:13.069Z,0.00
2022-12-18T02:36:16.862Z,0.00
2022-12-18T02:37:13.067Z,0.00
2022-12-18T02:38:13.020Z,0.00
2022-12-18T02:39:13.018Z,0.00
2022-12-18T02:40:13.958Z,0.00
2022-12-18T02:41:12.989Z,0.00
2022-12-18T02:42:13.001Z,0.00
2022-12-18T02:43:13.269Z,0.00
2022-12-18T02:44:12.982Z,0.00
2022-12-18T02:45:12.940Z,0.00
2022-12-18T02:46:12.976Z,0.00
2022-12-18T02:47:12.920Z,0.00
2022-12-18T02:48:13.188Z,0.00
2022-12-18T02:49:12.941Z,0.00
2022-12-18T02:50:12.882Z,0.00
2022-12-18T02:51:12.881Z,0.00
2022-12-18T02:52:12.860Z,0.00
2022-12-18T02:53:12.849Z,0.00
2022-12-18T02:54:12.839Z,0.00
2022-12-18T02:55:12.842Z,0.00
2022-12-18T02:56:16.742Z,0.00
2022-12-18T02:57:12.795Z,0.00
2022-12-18T02:58:12.793Z,0.00
2022-12-18T02:59:12.774Z,0.00
2022-12-18T03:00:12.770Z,0.00
2022-12-18T03:01:12.854Z,0.00
2022-12-18T03:02:12.910Z,0.00
2022-12-18T03:03:12.785Z,0.00
2022-12-18T03:04:12.713Z,0.00
2022-12-18T03:05:12.712Z,0.00
2022-12-18T03:06:12.703Z,0.00
2022-12-18T03:07:12.718Z,0.00
2022-12-18T03:08:12.677Z,0.00
2022-12-18T03:09:12.663Z,0.00
2022-12-18T03:10:12.655Z,0.00
2022-12-18T03:11:12.636Z,0.00
2022-12-18T03:12:12.638Z,0.00
2022-12-18T03:13:12.726Z,0.00
2022-12-18T03:14:12.605Z,0.00
2022-12-18T03:15:17.464Z,0.00
2022-12-18T03:16:13.582Z,0.00
2022-12-18T03:17:12.566Z,0.00
2022-12-18T03:18:12.568Z,0.00
2022-12-18T03:19:12.656Z,0.00
2022-12-18T03:20:12.555Z,0.00
2022-12-18T03:21:12.518Z,0.00
2022-12-18T03:22:12.514Z,0.00
2022-12-18T03:23:12.509Z,0.00
2022-12-18T03:24:12.490Z,0.00
2022-12-18T03:25:12.508Z,0.00
2022-12-18T03:26:12.464Z,0.00
2022-12-18T03:27:12.446Z,0.00
2022-12-18T03:28:12.446Z,0.00
2022-12-18T03:29:12.425Z,0.00
2022-12-18T03:30:12.417Z,0.00
2022-12-18T03:31:12.487Z,0.00
2022-12-18T03:32:12.400Z,0.00
2022-12-18T03:33:12.376Z,0.00
2022-12-18T03:34:12.377Z,0.00
2022-12-18T03:35:12.358Z,0.00
2022-12-18T03:36:12.357Z,0.00
2022-12-18T03:37:12.378Z,0.00
2022-12-18T03:38:12.327Z,0.00
2022-12-18T03:39:12.319Z,0.00
2022-12-18T03:40:12.308Z,0.00
2022-12-18T03:41:12.290Z,0.00
2022-12-18T03:42:12.281Z,0.00
2022-12-18T03:43:12.686Z,0.00
2022-12-18T03:44:12.261Z,0.00
2022-12-18T03:45:12.244Z,0.00
2022-12-18T03:46:12.301Z,0.00
2022-12-18T03:47:12.217Z,0.00
2022-12-18T03:48:12.215Z,0.00
2022-12-18T03:49:12.231Z,0.00
2022-12-18T03:50:16.631Z,0.00
2022-12-18T03:51:14.648Z,0.00
2022-12-18T03:52:12.163Z,0.00
2022-12-18T03:53:12.145Z,0.00
2022-12-18T03:54:12.141Z,0.00
2022-12-18T03:55:12.167Z,0.00
2022-12-18T03:56:12.139Z,0.00
2022-12-18T03:57:12.396Z,0.00
2022-12-18T03:58:12.423Z,0.00
2022-12-18T03:59:12.088Z,0.00
2022-12-18T04:00:12.063Z,0.00
2022-12-18T04:01:12.126Z,0.00
2022-12-18T04:02:12.836Z,0.00
2022-12-18T04:03:12.126Z,0.00
2022-12-18T04:04:12.056Z,0.00
2022-12-18T04:05:12.005Z,0.00
2022-12-18T04:06:15.915Z,0.00
2022-12-18T04:07:12.025Z,0.00
2022-12-18T04:08:11.981Z,0.00
2022-12-18T04:09:11.969Z,0.00
2022-12-18T04:10:11.955Z,0.00
2022-12-18T04:11:11.947Z,0.00
2022-12-18T04:12:11.932Z,0.00
2022-12-18T04:13:11.960Z,0.00
2022-12-18T04:14:17.384Z,0.00
2022-12-18T04:15:16.834Z,0.00
2022-12-18T04:16:11.936Z,0.00
2022-12-18T04:17:15.876Z,0.00
2022-12-18T04:18:12.326Z,0.00
2022-12-18T04:19:11.867Z,0.00
2022-12-18T04:20:11.838Z,0.00
2022-12-18T04:21:11.826Z,0.00
2022-12-18T04:22:11.826Z,0.00
2022-12-18T04:23:12.504Z,0.00
2022-12-18T04:24:11.787Z,0.00
2022-12-18T04:25:11.878Z,0.00
2022-12-18T04:26:11.773Z,0.00
2022-12-18T04:27:11.749Z,0.00
2022-12-18T04:28:11.737Z,0.00
2022-12-18T04:29:11.728Z,0.00
2022-12-18T04:30:11.729Z,0.00
2022-12-18T04:31:11.768Z,0.00
2022-12-18T04:32:11.688Z,0.00
2022-12-18T04:33:11.679Z,0.00
2022-12-18T04:34:11.678Z,0.00
2022-12-18T04:35:11.659Z,0.00
2022-12-18T04:36:11.649Z,0.00
2022-12-18T04:37:11.842Z,0.00
2022-12-18T04:38:11.632Z,0.00
2022-12-18T04:39:11.619Z,0.00
2022-12-18T04:40:11.608Z,0.00
2022-12-18T04:41:12.426Z,0.00
2022-12-18T04:42:11.853Z,0.00
2022-12-18T04:43:11.740Z,0.00
2022-12-18T04:44:11.560Z,0.00
2022-12-18T04:45:11.544Z,0.00
2022-12-18T04:46:11.576Z,0.00
2022-12-18T04:47:11.528Z,0.00
2022-12-18T04:48:11.509Z,0.00
2022-12-18T04:49:11.544Z,0.00
2022-12-18T04:50:12.461Z,0.00
2022-12-18T04:51:11.474Z,0.00
2022-12-18T04:52:11.470Z,0.00
2022-12-18T04:53:11.450Z,0.00
2022-12-18T04:54:11.441Z,0.00
2022-12-18T04:55:11.556Z,0.00
2022-12-18T04:56:11.416Z,0.00
2022-12-18T04:57:11.681Z,0.00
2022-12-18T04:58:11.392Z,0.00
2022-12-18T04:59:11.379Z,0.00
2022-12-18T05:00:11.372Z,0.00
2022-12-18T05:01:11.468Z,0.00
2022-12-18T05:02:11.486Z,0.00
2022-12-18T05:03:11.331Z,0.00
2022-12-18T05:04:11.449Z,0.00
2022-12-18T05:05:11.305Z,0.00
2022-12-18T05:06:12.135Z,0.00
2022-12-18T05:07:12.153Z,0.00
2022-12-18T05:08:11.293Z,0.00
2022-12-18T05:09:11.263Z,0.00
2022-12-18T05:10:11.256Z,0.00
2022-12-18T05:11:11.245Z,0.00
2022-12-18T05:12:11.234Z,0.00
2022-12-18T05:13:11.344Z,0.00
2022-12-18T05:14:11.215Z,0.00
2022-12-18T05:15:11.199Z,0.00
2022-12-18T05:16:11.509Z,0.00
2022-12-18T05:17:15.237Z,0.00
2022-12-18T05:18:11.166Z,0.00
2022-12-18T05:19:11.487Z,0.00
2022-12-18T05:20:11.135Z,0.00
2022-12-18T05:21:11.133Z,0.00
2022-12-18T05:22:15.011Z,0.00
2022-12-18T05:23:11.104Z,0.00
2022-12-18T05:24:11.096Z,0.00
2022-12-18T05:25:11.096Z,0.00
2022-12-18T05:26:11.581Z,0.00
2022-12-18T05:27:11.535Z,0.00
2022-12-18T05:28:11.046Z,0.00
2022-12-18T05:29:11.047Z,0.00
2022-12-18T05:30:11.035Z,0.00
2022-12-18T05:31:11.084Z,0.00
2022-12-18T05:32:11.007Z,0.00
2022-12-18T05:33:11.011Z,0.00
2022-12-18T05:34:10.992Z,0.00
2022-12-18T05:35:10.959Z,0.00
2022-12-18T05:36:10.956Z,0.00
2022-12-18T05:37:11.059Z,0.00
2022-12-18T05:38:10.929Z,0.00
2022-12-18T05:39:10.917Z,0.00
2022-12-18T05:40:10.910Z,0.00
2022-12-18T05:41:10.890Z,0.00
2022-12-18T05:42:10.878Z,0.00
2022-12-18T05:43:10.900Z,0.00
2022-12-18T05:44:10.858Z,0.00
2022-12-18T05:45:10.854Z,0.00
2022-12-18T05:46:14.801Z,0.00
2022-12-18T05:47:10.828Z,0.00
2022-12-18T05:48:10.822Z,0.00
2022-12-18T05:49:10.851Z,0.00
2022-12-18T05:50:10.801Z,0.00
2022-12-18T05:51:10.778Z,0.00
2022-12-18T05:52:10.763Z,0.00
2022-12-18T05:53:10.759Z,0.00
2022-12-18T05:54:10.738Z,0.00
2022-12-18T05:55:10.767Z,0.00
2022-12-18T05:56:10.710Z,0.00
2022-12-18T05:57:10.713Z,0.00
2022-12-18T05:58:10.696Z,0.00
2022-12-18T05:59:10.689Z,0.00
2022-12-18T06:00:10.723Z,0.00
2022-12-18T06:01:14.889Z,0.00
2022-12-18T06:02:10.776Z,0.00
2022-12-18T06:03:10.768Z,0.00
2022-12-18T06:04:10.699Z,0.00
2022-12-18T06:05:10.627Z,0.00
2022-12-18T06:06:10.603Z,0.00
2022-12-18T06:07:10.896Z,0.00
2022-12-18T06:08:10.767Z,0.00
2022-12-18T06:09:10.589Z,0.00
2022-12-18T06:10:10.561Z,0.00
2022-12-18T06:11:10.542Z,0.00
2022-12-18T06:12:10.533Z,0.00
2022-12-18T06:13:10.631Z,0.00
2022-12-18T06:14:10.508Z,0.00
2022-12-18T06:15:10.504Z,0.00
2022-12-18T06:16:10.538Z,0.00
2022-12-18T06:17:10.493Z,0.00
2022-12-18T06:18:10.478Z,0.00
2022-12-18T06:19:10.472Z,0.00
2022-12-18T06:20:11.391Z,0.00
2022-12-18T06:21:10.434Z,0.00
2022-12-18T06:22:10.412Z,0.00
2022-12-18T06:23:14.282Z,0.00
2022-12-18T06:24:11.414Z,0.00
2022-12-18T06:25:10.405Z,0.00
2022-12-18T06:26:10.363Z,0.00
2022-12-18T06:27:10.364Z,0.00
2022-12-18T06:28:10.344Z,0.00
2022-12-18T06:29:10.333Z,0.00
2022-12-18T06:30:10.387Z,0.00
2022-12-18T06:31:10.389Z,0.00
2022-12-18T06:32:10.295Z,0.00
2022-12-18T06:33:10.293Z,0.00
2022-12-18T06:34:10.274Z,0.00
2022-12-18T06:35:10.266Z,0.00
2022-12-18T06:36:10.694Z,0.00
2022-12-18T06:37:10.255Z,0.00
2022-12-18T06:38:10.234Z,0.00
2022-12-18T06:39:10.217Z,0.00
2022-12-18T06:40:10.217Z,0.00
2022-12-18T06:41:10.194Z,0.00
2022-12-18T06:42:10.295Z,0.00
2022-12-18T06:43:10.168Z,1.00
2022-12-18T06:44:10.155Z,1.00
2022-12-18T06:45:10.163Z,0.00
2022-12-18T06:46:10.194Z,0.00
2022-12-18T06:47:10.129Z,0.00
2022-12-18T06:48:10.137Z,0.00
2022-12-18T06:49:10.114Z,0.00
2022-12-18T06:50:10.094Z,2.00
2022-12-18T06:51:10.767Z,2.00
2022-12-18T06:52:10.073Z,2.00
2022-12-18T06:53:10.056Z,0.00
2022-12-18T06:54:10.439Z,0.00
2022-12-18T06:55:10.034Z,0.00
2022-12-18T06:56:11.073Z,4.00
2022-12-18T06:57:10.009Z,0.00
2022-12-18T06:58:13.989Z,2.00
2022-12-18T06:59:09.989Z,1.00
2022-12-18T07:00:10.167Z,5.00
2022-12-18T07:01:10.001Z,3.00
2022-12-18T07:02:10.028Z,2.00
2022-12-18T07:03:10.005Z,9.00
2022-12-18T07:04:09.926Z,7.00
2022-12-18T07:05:11.059Z,3.00
2022-12-18T07:06:09.959Z,6.00
2022-12-18T07:07:09.893Z,6.00
2022-12-18T07:08:09.878Z,11.00
2022-12-18T07:09:09.870Z,8.00
2022-12-18T07:10:09.860Z,9.00
2022-12-18T07:11:09.850Z,11.00
2022-12-18T07:12:10.028Z,13.00
2022-12-18T07:13:09.821Z,15.00
2022-12-18T07:14:09.820Z,18.00
2022-12-18T07:15:09.802Z,21.00
2022-12-18T07:16:15.221Z,27.00
2022-12-18T07:17:10.927Z,30.00
2022-12-18T07:18:09.761Z,31.00
2022-12-18T07:19:09.751Z,35.00
2022-12-18T07:20:09.730Z,39.00
2022-12-18T07:21:09.730Z,52.00
2022-12-18T07:22:09.727Z,62.00
2022-12-18T07:23:09.741Z,71.00
2022-12-18T07:24:09.701Z,79.00
2022-12-18T07:25:09.693Z,100.00
2022-12-18T07:26:09.662Z,108.00
2022-12-18T07:27:09.685Z,136.00
2022-12-18T07:28:12.861Z,153.00
2022-12-18T07:29:10.673Z,186.00
2022-12-18T07:30:09.611Z,190.00
2022-12-18T07:31:09.611Z,220.00
2022-12-18T07:32:09.626Z,251.00
2022-12-18T07:33:09.585Z,278.00
2022-12-18T07:34:09.572Z,305.00
2022-12-18T07:35:09.590Z,344.00
2022-12-18T07:36:09.553Z,378.00
2022-12-18T07:37:09.542Z,411.00
2022-12-18T07:38:09.538Z,442.00
2022-12-18T07:39:09.514Z,481.00
2022-12-18T07:40:09.492Z,514.00
2022-12-18T07:41:09.604Z,558.00
2022-12-18T07:42:09.475Z,594.00
2022-12-18T07:43:09.469Z,634.00
2022-12-18T07:44:09.453Z,672.00
2022-12-18T07:45:09.454Z,720.00
2022-12-18T07:46:09.472Z,756.00
2022-12-18T07:47:12.186Z,804.00
2022-12-18T07:48:09.416Z,848.00
2022-12-18T07:49:09.395Z,894.00
2022-12-18T07:50:09.386Z,940.00
2022-12-18T07:51:09.378Z,986.00
2022-12-18T07:52:09.365Z,1016.00
2022-12-18T07:53:09.462Z,1066.00
2022-12-18T07:54:09.340Z,1112.00
2022-12-18T07:55:09.337Z,1156.00
2022-12-18T07:57:27.380Z,1247.00
2022-12-18T07:58:10.324Z,1296.00
2022-12-18T07:59:09.296Z,1361.00
2022-12-18T08:00:09.277Z,1443.00
2022-12-18T08:01:09.286Z,1489.00
2022-12-18T08:02:09.518Z,1534.00
2022-12-18T08:03:09.296Z,1597.00
2022-12-18T08:04:09.248Z,1627.00
2022-12-18T08:05:09.209Z,1708.00
2022-12-18T08:06:09.206Z,1762.00
2022-12-18T08:07:09.198Z,1827.00
2022-12-18T08:08:09.177Z,1878.00
2022-12-18T08:09:09.168Z,1935.00
2022-12-18T08:10:09.200Z,2004.00
2022-12-18T08:11:09.155Z,2052.00
2022-12-18T08:12:09.136Z,2107.00
2022-12-18T08:13:09.119Z,2165.00
2022-12-18T08:14:09.111Z,2217.00
2022-12-18T08:15:09.102Z,2252.00
2022-12-18T08:16:09.165Z,2302.00
2022-12-18T08:17:09.070Z,2352.00
2022-12-18T08:18:13.945Z,2390.00
2022-12-18T08:19:10.060Z,2425.00
2022-12-18T08:20:09.037Z,2488.00
2022-12-18T08:21:09.027Z,2519.00
2022-12-18T08:22:09.210Z,2578.00
2022-12-18T08:23:09.003Z,2612.00
2022-12-18T08:24:08.989Z,2670.00
2022-12-18T08:25:08.985Z,2713.00
2022-12-18T08:26:08.969Z,2737.00
2022-12-18T08:28:09.978Z,2750.00
2022-12-18T08:29:08.934Z,2787.00
2022-12-18T08:30:08.992Z,2844.00
2022-12-18T08:31:08.972Z,2930.00
2022-12-18T08:32:09.044Z,2999.00
2022-12-18T08:33:08.882Z,3049.00
2022-12-18T08:34:08.911Z,3112.00
2022-12-18T08:35:08.863Z,3160.00
2022-12-18T08:36:08.844Z,3184.00
2022-12-18T08:37:08.842Z,3254.00
2022-12-18T08:38:08.837Z,3289.00
2022-12-18T08:39:08.814Z,3336.00
2022-12-18T08:40:08.845Z,3340.00
2022-12-18T08:41:08.795Z,3374.00
2022-12-18T08:42:10.413Z,3412.00
2022-12-18T08:43:08.764Z,3442.00
2022-12-18T08:44:08.756Z,3506.00
2022-12-18T08:45:08.748Z,3577.00
2022-12-18T08:46:08.795Z,3635.00
2022-12-18T08:47:08.733Z,3706.00
2022-12-18T08:48:08.706Z,3798.00
2022-12-18T08:49:08.695Z,3824.00
2022-12-18T08:50:08.676Z,3877.00
2022-12-18T08:51:08.666Z,3917.00
2022-12-18T08:52:08.708Z,3989.00
2022-12-18T08:53:08.655Z,4028.00
2022-12-18T08:54:08.637Z,4062.00
2022-12-18T08:55:08.632Z,4093.00
2022-12-18T08:56:08.609Z,4113.00
2022-12-18T08:57:08.619Z,4146.00
2022-12-18T08:58:08.717Z,4178.00
2022-12-18T08:59:08.578Z,4240.00
2022-12-18T09:00:08.568Z,4246.00
2022-12-18T09:01:08.624Z,4172.00
2022-12-18T09:02:08.690Z,4247.00
2022-12-18T09:03:08.569Z,4346.00
2022-12-18T09:04:08.555Z,4398.00
2022-12-18T09:05:08.506Z,4437.00
2022-12-18T09:06:08.490Z,4517.00
2022-12-18T09:07:08.478Z,4584.00
2022-12-18T09:08:08.470Z,4691.00
2022-12-18T09:09:08.458Z,4753.00
2022-12-18T09:10:08.471Z,4818.00
2022-12-18T09:11:08.436Z,4899.00
2022-12-18T09:12:08.419Z,4945.00
2022-12-18T09:13:08.422Z,5013.00
2022-12-18T09:14:08.390Z,5080.00
2022-12-18T09:15:12.358Z,5222.00
2022-12-18T09:16:08.393Z,5345.00
2022-12-18T09:17:08.416Z,5523.00
2022-12-18T09:18:08.341Z,5679.00
2022-12-18T09:19:08.350Z,5800.00
2022-12-18T09:20:08.329Z,5863.00
2022-12-18T09:21:08.324Z,5950.00
2022-12-18T09:22:08.321Z,6070.00
2022-12-18T09:23:08.302Z,6160.00
2022-12-18T09:24:08.761Z,6239.00
2022-12-18T09:25:08.283Z,6234.00
2022-12-18T09:26:08.254Z,6165.00
2022-12-18T09:27:08.242Z,6104.00
2022-12-18T09:28:08.329Z,6049.00
2022-12-18T09:29:08.279Z,5981.00
2022-12-18T09:30:08.212Z,6036.00
2022-12-18T09:31:08.233Z,5912.00
2022-12-18T09:32:08.172Z,5837.00
2022-12-18T09:33:08.173Z,5780.00
2022-12-18T09:34:08.172Z,5692.00
2022-12-18T09:35:08.154Z,5650.00
2022-12-18T09:36:08.137Z,5729.00
2022-12-18T09:37:08.123Z,5819.00
2022-12-18T09:38:08.117Z,5880.00
2022-12-18T09:39:09.084Z,5978.00
2022-12-18T09:40:08.133Z,6129.00
2022-12-18T09:41:08.083Z,6180.00
2022-12-18T09:42:08.062Z,6244.00
2022-12-18T09:43:08.217Z,6360.00
2022-12-18T09:44:08.362Z,6513.00
2022-12-18T09:45:08.083Z,6725.00
2022-12-18T09:46:08.606Z,6920.00
2022-12-18T09:47:08.004Z,7062.00
2022-12-18T09:48:08.004Z,7166.00
2022-12-18T09:49:07.979Z,7300.00
2022-12-18T09:50:11.591Z,7406.00
2022-12-18T09:51:08.979Z,7452.00
2022-12-18T09:52:07.939Z,7534.00
2022-12-18T09:53:07.939Z,7604.00
2022-12-18T09:54:07.925Z,7594.00
2022-12-18T09:55:07.912Z,7492.00
2022-12-18T09:56:07.900Z,7509.00
2022-12-18T09:57:07.916Z,7552.00
2022-12-18T09:58:07.868Z,7478.00
2022-12-18T09:59:07.859Z,7353.00
2022-12-18T10:00:07.857Z,7136.00
2022-12-18T10:01:07.856Z,7044.00
2022-12-18T10:02:07.906Z,6918.00
2022-12-18T10:03:07.974Z,6718.00
2022-12-18T10:04:08.559Z,6649.00
2022-12-18T10:05:08.449Z,6555.00
2022-12-18T10:06:07.777Z,6487.00
2022-12-18T10:07:09.414Z,6436.00
2022-12-18T10:08:07.763Z,6439.00
2022-12-18T10:09:07.774Z,6519.00
2022-12-18T10:10:07.732Z,6611.00
2022-12-18T10:11:07.709Z,6762.00
2022-12-18T10:12:07.698Z,6819.00
2022-12-18T10:13:07.688Z,6887.00
2022-12-18T10:14:07.678Z,7088.00
2022-12-18T10:15:07.692Z,7055.00
2022-12-18T10:16:07.752Z,7165.00
2022-12-18T10:17:07.640Z,7202.00
2022-12-18T10:18:07.632Z,7208.00
2022-12-18T10:19:07.611Z,6946.00
2022-12-18T10:20:07.610Z,6897.00
2022-12-18T10:21:07.710Z,6685.00
2022-12-18T10:22:07.583Z,6340.00
2022-12-18T10:23:07.562Z,5979.00
2022-12-18T10:24:07.549Z,5669.00
2022-12-18T10:25:07.543Z,5547.00
2022-12-18T10:26:07.536Z,5515.00
2022-12-18T10:27:07.550Z,5491.00
2022-12-18T10:28:08.163Z,5426.00
2022-12-18T10:29:07.486Z,5414.00
2022-12-18T10:30:07.483Z,5398.00
2022-12-18T10:31:07.495Z,5425.00
2022-12-18T10:32:07.457Z,5486.00
2022-12-18T10:33:07.472Z,5552.00
2022-12-18T10:34:07.425Z,5620.00
2022-12-18T10:35:07.404Z,5688.00
2022-12-18T10:36:07.408Z,5767.00
2022-12-18T10:37:07.386Z,5878.00
2022-12-18T10:38:07.376Z,5948.00
2022-12-18T10:39:07.392Z,5974.00
2022-12-18T10:40:07.358Z,5994.00
2022-12-18T10:41:07.336Z,6008.00
2022-12-18T10:42:07.326Z,6022.00
2022-12-18T10:43:07.314Z,6065.00
2022-12-18T10:44:07.298Z,6120.00
2022-12-18T10:45:07.403Z,6178.00
2022-12-18T10:46:07.387Z,6263.00
2022-12-18T10:47:11.679Z,6340.00
2022-12-18T10:48:07.250Z,6425.00
2022-12-18T10:49:07.228Z,6501.00
2022-12-18T10:50:07.230Z,6546.00
2022-12-18T10:51:12.655Z,6571.00
2022-12-18T10:52:08.214Z,6586.00
2022-12-18T10:53:07.176Z,6642.00
2022-12-18T10:54:07.181Z,6644.00
2022-12-18T10:55:07.160Z,6625.00
2022-12-18T10:56:07.149Z,6648.00
2022-12-18T10:57:07.351Z,6656.00
2022-12-18T10:58:07.118Z,6680.00
2022-12-18T10:59:07.111Z,6691.00
2022-12-18T11:00:07.108Z,6683.00
2022-12-18T11:01:07.083Z,6647.00
2022-12-18T11:02:07.224Z,6634.00
2022-12-18T11:03:07.211Z,6598.00
2022-12-18T11:04:07.090Z,6608.00
2022-12-18T11:05:07.031Z,6600.00
2022-12-18T11:06:07.850Z,6575.00
2022-12-18T11:07:07.014Z,6602.00
2022-12-18T11:08:07.011Z,6631.00
2022-12-18T11:09:13.241Z,6584.00
2022-12-18T11:10:07.990Z,6623.00
2022-12-18T11:11:06.974Z,6633.00
2022-12-18T11:12:06.952Z,6616.00
2022-12-18T11:13:06.936Z,6573.00
2022-12-18T11:14:07.212Z,6560.00
2022-12-18T11:15:10.822Z,6499.00
2022-12-18T11:16:06.933Z,6530.00
2022-12-18T11:17:25.224Z,6484.00
2022-12-18T11:18:07.876Z,6477.00
2022-12-18T11:19:06.863Z,6472.00
2022-12-18T11:20:06.855Z,6488.00
2022-12-18T11:21:07.059Z,6523.00
2022-12-18T11:22:06.845Z,6459.00
2022-12-18T11:23:06.820Z,6394.00
2022-12-18T11:24:07.064Z,6374.00
2022-12-18T11:26:07.805Z,6329.00
2022-12-18T11:27:07.716Z,6285.00
2022-12-18T11:28:06.753Z,6187.00
2022-12-18T11:29:06.736Z,6158.00
2022-12-18T11:30:06.757Z,6107.00
2022-12-18T11:31:06.753Z,6047.00
2022-12-18T11:32:06.819Z,5992.00
2022-12-18T11:33:06.690Z,5951.00
2022-12-18T11:35:07.660Z,5840.00
2022-12-18T11:36:06.650Z,5796.00
2022-12-18T11:37:06.644Z,5755.00
2022-12-18T11:38:06.746Z,5739.00
2022-12-18T11:39:06.610Z,5722.00
2022-12-18T11:40:07.574Z,5695.00
2022-12-18T11:41:06.578Z,5711.00
2022-12-18T11:42:06.584Z,5728.00
2022-12-18T11:43:06.574Z,5747.00
2022-12-18T11:44:06.580Z,5771.00
2022-12-18T11:45:06.542Z,5781.00
2022-12-18T11:46:06.644Z,5793.00
2022-12-18T11:47:06.580Z,5803.00
2022-12-18T11:48:06.509Z,5805.00
2022-12-18T11:49:06.481Z,5816.00
2022-12-18T11:50:06.595Z,5816.00
2022-12-18T11:51:06.465Z,5821.00
2022-12-18T11:52:06.471Z,5818.00
2022-12-18T11:53:06.670Z,5829.00
2022-12-18T11:54:06.433Z,5830.00
2022-12-18T11:55:06.420Z,5829.00
2022-12-18T11:56:06.434Z,5809.00
2022-12-18T11:57:06.401Z,5768.00
2022-12-18T11:58:06.382Z,5746.00
2022-12-18T11:59:06.373Z,5721.00
2022-12-18T12:00:06.365Z,5672.00
2022-12-18T12:01:06.338Z,5649.00
2022-12-18T12:02:06.499Z,5624.00
2022-12-18T12:03:06.395Z,5581.00
2022-12-18T12:04:06.334Z,5543.00
2022-12-18T12:05:06.297Z,5514.00
2022-12-18T12:06:06.487Z,5469.00
2022-12-18T12:07:06.268Z,5440.00
2022-12-18T12:08:06.292Z,5393.00
2022-12-18T12:09:06.246Z,5366.00
2022-12-18T12:10:06.246Z,5321.00
2022-12-18T12:11:06.217Z,5288.00
2022-12-18T12:12:06.228Z,5251.00
2022-12-18T12:13:06.198Z,5224.00
2022-12-18T12:14:06.299Z,5179.00
2022-12-18T12:15:06.177Z,5154.00
2022-12-18T12:16:06.206Z,5096.00
2022-12-18T12:17:06.159Z,5061.00
2022-12-18T12:18:11.100Z,5006.00
2022-12-18T12:19:07.897Z,4958.00
2022-12-18T12:20:06.113Z,4907.00
2022-12-18T12:21:06.097Z,4850.00
2022-12-18T12:22:06.098Z,4813.00
2022-12-18T12:23:06.480Z,4742.00
2022-12-18T12:24:06.062Z,4713.00
2022-12-18T12:25:06.173Z,4664.00
2022-12-18T12:26:06.047Z,4617.00
2022-12-18T12:27:06.020Z,4563.00
2022-12-18T12:28:06.003Z,4518.00
2022-12-18T12:29:09.200Z,4482.00
2022-12-18T12:30:05.998Z,4444.00
2022-12-18T12:31:06.176Z,4436.00
2022-12-18T12:32:05.990Z,4426.00
2022-12-18T12:33:05.954Z,4410.00
2022-12-18T12:34:05.944Z,4407.00
2022-12-18T12:35:09.673Z,4409.00
2022-12-18T12:36:05.924Z,4409.00
2022-12-18T12:37:05.915Z,4432.00
2022-12-18T12:38:05.885Z,4439.00
2022-12-18T12:39:05.883Z,4439.00
2022-12-18T12:40:26.848Z,4430.00
2022-12-18T12:41:06.848Z,4420.00
2022-12-18T12:42:05.842Z,4396.00
2022-12-18T12:43:05.866Z,4367.00
2022-12-18T12:44:05.826Z,4340.00
2022-12-18T12:45:05.807Z,4293.00
2022-12-18T12:46:05.837Z,4247.00
2022-12-18T12:47:05.766Z,4198.00
2022-12-18T12:48:05.775Z,4153.00
2022-12-18T12:49:10.754Z,4111.00
2022-12-18T12:50:06.215Z,4067.00
2022-12-18T12:51:05.729Z,4032.00